createdAt,value
2018-06-21T00:01:31.647Z,97172.11
2018-06-21T00:06:26.191Z,97157.78
2018-06-21T00:11:20.747Z,97162.53
2018-06-21T00:16:15.111Z,97164.61
2018-06-21T00:21:09.700Z,97162.61
2018-06-21T00:26:04.285Z,97163.81
2018-06-21T00:30:58.857Z,97154.91
2018-06-21T00:35:53.103Z,97157.66
2018-06-21T00:40:47.645Z,97151.80
2018-06-21T00:45:42.243Z,97153.13
2018-06-21T00:50:36.799Z,97159.06
2018-06-21T00:55:48.111Z,97155.60
2018-06-21T01:00:42.795Z,97151.53
2018-06-21T01:05:37.403Z,97154.19
2018-06-21T01:10:31.935Z,97148.55
2018-06-21T01:15:26.478Z,97148.60
2018-06-21T01:20:21.983Z,97144.14
2018-06-21T01:25:17.444Z,97147.80
2018-06-21T01:30:12.000Z,97152.42
2018-06-21T01:35:06.909Z,97151.29
2018-06-21T01:40:01.464Z,97149.33
2018-06-21T01:44:55.980Z,97150.52
2018-06-21T01:49:50.585Z,97152.30
2018-06-21T01:54:45.130Z,97144.97
2018-06-21T01:59:39.690Z,97146.42
2018-06-21T02:04:34.284Z,97140.78
2018-06-21T02:09:28.881Z,97140.30
2018-06-21T02:14:23.502Z,97147.34
2018-06-21T02:19:18.071Z,97129.95
2018-06-21T02:24:12.641Z,97128.53
2018-06-21T02:29:07.330Z,97132.75
2018-06-21T02:34:01.845Z,97129.59
2018-06-21T02:38:56.435Z,97125.63
2018-06-21T02:43:50.952Z,97118.00
2018-06-21T02:48:45.529Z,97115.45
2018-06-21T02:53:40.111Z,97109.16
2018-06-21T02:58:34.643Z,97108.80
2018-06-21T03:03:29.208Z,97115.95
2018-06-21T03:08:23.750Z,97109.48
2018-06-21T03:13:18.391Z,97115.66
2018-06-21T03:18:12.930Z,97108.51
2018-06-21T03:23:07.480Z,97115.16
2018-06-21T03:28:02.033Z,97106.85
2018-06-21T03:32:59.544Z,97110.55
2018-06-21T03:37:54.138Z,97112.83
2018-06-21T03:42:48.704Z,97114.17
2018-06-21T03:47:43.267Z,97114.33
2018-06-21T03:52:37.846Z,97115.69
2018-06-21T03:57:32.457Z,97110.55
2018-06-21T04:02:28.289Z,97119.66
2018-06-21T04:07:22.808Z,97118.65
2018-06-21T04:12:17.324Z,97129.45
2018-06-21T04:17:11.878Z,97129.64
2018-06-21T04:22:06.407Z,97124.00
2018-06-21T04:27:00.949Z,97128.11
2018-06-21T04:31:55.519Z,97134.08
2018-06-21T04:36:50.913Z,97133.13
2018-06-21T04:41:45.503Z,97135.61
2018-06-21T04:46:40.066Z,97137.32
2018-06-21T04:51:34.649Z,97131.62
2018-06-21T04:56:29.206Z,97128.46
2018-06-21T05:01:23.808Z,97135.64
2018-06-21T05:06:18.404Z,97128.72
2018-06-21T05:11:12.651Z,97132.77
2018-06-21T05:16:07.260Z,97127.70
2018-06-21T05:21:01.795Z,97123.92
2018-06-21T05:25:56.506Z,97126.52
2018-06-21T05:30:51.061Z,97129.36
2018-06-21T05:40:50.515Z,97136.05
2018-06-21T05:45:45.049Z,97132.30
2018-06-21T05:50:39.679Z,97129.01
2018-06-21T05:55:34.926Z,97131.14
2018-06-21T06:00:29.731Z,97134.26
2018-06-21T06:05:23.972Z,97129.78
2018-06-21T06:10:18.525Z,97127.26
2018-06-21T06:15:13.066Z,97124.12
2018-06-21T06:20:07.760Z,97125.11
2018-06-21T06:25:02.259Z,97127.47
2018-06-21T06:29:56.796Z,97131.58
2018-06-21T06:34:51.371Z,97123.27
2018-06-21T06:39:45.633Z,97120.42
2018-06-21T06:44:40.194Z,97122.31
2018-06-21T06:49:34.744Z,97116.78
2018-06-21T06:54:29.341Z,97115.97
2018-06-21T06:59:23.855Z,97111.73
2018-06-21T07:04:18.462Z,97101.65
2018-06-21T07:09:13.049Z,97099.73
2018-06-21T07:14:07.797Z,97102.23
2018-06-21T07:19:02.647Z,97099.30
2018-06-21T07:23:57.208Z,97094.30
2018-06-21T07:28:51.774Z,97093.52
2018-06-21T07:33:46.457Z,97082.61
2018-06-21T07:38:41.017Z,97085.59
2018-06-21T07:43:35.571Z,97091.00
2018-06-21T07:48:30.120Z,97080.66
2018-06-21T07:53:24.643Z,97075.42
2018-06-21T07:58:19.557Z,97070.34
2018-06-21T08:03:14.107Z,97079.67
2018-06-21T08:08:08.710Z,97070.28
2018-06-21T08:13:03.331Z,97077.66
2018-06-21T08:17:57.968Z,97066.63
2018-06-21T08:22:52.524Z,97068.73
2018-06-21T08:27:47.118Z,97067.86
2018-06-21T08:32:43.553Z,97067.67
2018-06-21T08:37:38.142Z,97057.80
2018-06-21T08:42:32.758Z,97059.34
2018-06-21T08:47:27.285Z,97065.03
2018-06-21T08:52:21.827Z,97048.97
2018-06-21T08:57:16.386Z,97061.51
2018-06-21T09:02:11.230Z,97061.95
2018-06-21T09:07:05.838Z,97054.47
2018-06-21T09:12:00.477Z,97053.94
2018-06-21T09:16:55.120Z,97059.81
2018-06-21T09:21:49.755Z,97055.09
2018-06-21T09:26:44.466Z,97056.55
2018-06-21T09:31:39.130Z,97057.33
2018-06-21T09:36:40.226Z,97055.92
2018-06-21T09:41:39.854Z,97056.97
2018-06-21T09:46:39.524Z,97059.34
2018-06-21T09:51:34.180Z,97057.38
2018-06-21T09:56:28.816Z,97051.25
2018-06-21T10:01:23.399Z,97048.45
2018-06-21T10:06:18.080Z,97036.84
2018-06-21T10:11:12.625Z,97027.61
2018-06-21T10:16:07.183Z,97029.83
2018-06-21T10:21:01.822Z,97025.31
2018-06-21T10:25:56.396Z,97017.81
2018-06-21T10:30:51.014Z,97012.72
2018-06-21T10:35:45.588Z,97017.30
2018-06-21T10:40:40.221Z,97019.83
2018-06-21T10:45:34.803Z,97000.47
2018-06-21T10:50:29.411Z,96988.40
2018-06-21T10:55:24.023Z,96994.61
2018-06-21T11:00:18.698Z,96980.89
2018-06-21T11:05:13.363Z,96975.39
2018-06-21T11:10:08.016Z,96973.41
2018-06-21T11:15:02.599Z,96982.00
2018-06-21T11:19:57.154Z,96974.00
2018-06-21T11:24:52.075Z,96972.30
2018-06-21T11:29:46.592Z,96976.45
2018-06-21T11:34:41.221Z,96969.17
2018-06-21T11:39:35.803Z,96956.30
2018-06-21T11:44:30.346Z,96962.40
2018-06-21T11:49:24.902Z,96950.77
2018-06-21T11:54:19.459Z,96957.59
2018-06-21T11:59:14.057Z,96946.78
2018-06-21T12:04:08.743Z,96949.67
2018-06-21T12:09:03.447Z,96944.53
2018-06-21T12:13:57.976Z,96947.30
2018-06-21T12:18:52.646Z,96945.36
2018-06-21T12:23:47.281Z,96941.55
2018-06-21T12:28:41.939Z,96934.92
2018-06-21T12:33:36.507Z,96929.27
2018-06-21T12:38:31.086Z,96936.94
2018-06-21T12:43:25.735Z,96931.88
2018-06-21T12:48:20.299Z,96940.75
2018-06-21T12:53:14.558Z,96938.92
2018-06-21T12:58:09.163Z,96936.88
2018-06-21T13:03:03.737Z,96932.73
2018-06-21T13:07:58.280Z,96927.47
2018-06-21T13:13:10.354Z,96932.24
2018-06-21T13:18:04.973Z,96930.53
2018-06-21T13:22:59.552Z,96929.64
2018-06-21T13:27:54.123Z,96933.89
2018-06-21T13:32:48.694Z,96927.77
2018-06-21T13:37:43.284Z,96914.44
2018-06-21T13:42:37.876Z,96906.61
2018-06-21T13:47:32.500Z,96908.72
2018-06-21T13:52:27.063Z,96910.58
2018-06-21T13:57:21.700Z,96912.02
2018-06-21T14:02:16.362Z,96903.94
2018-06-21T14:07:10.987Z,96909.66
2018-06-21T14:12:05.629Z,96918.48
2018-06-21T14:17:00.236Z,96915.19
2018-06-21T14:21:54.879Z,96914.04
2018-06-21T14:26:49.522Z,96922.37
2018-06-21T14:31:44.178Z,96922.83
2018-06-21T14:36:38.755Z,96919.02
2018-06-21T14:41:33.379Z,96925.78
2018-06-21T14:46:28.006Z,96922.79
2018-06-21T14:51:22.754Z,96927.70
2018-06-21T14:56:17.367Z,96920.38
2018-06-21T15:01:12.032Z,96930.27
2018-06-21T15:06:06.813Z,96929.73
2018-06-21T15:11:01.396Z,96928.97
2018-06-21T15:15:56.062Z,96929.02
2018-06-21T15:20:50.702Z,96931.76
2018-06-21T15:25:45.316Z,96926.80
2018-06-21T15:30:39.921Z,96927.45
2018-06-21T15:35:34.571Z,96937.03
2018-06-21T15:40:29.197Z,96935.74
2018-06-21T15:45:23.836Z,96935.72
2018-06-21T15:50:18.491Z,96937.25
2018-06-21T15:55:13.056Z,96931.50
2018-06-21T16:00:07.808Z,96935.68
2018-06-21T16:05:02.379Z,96934.37
2018-06-21T16:09:56.922Z,96934.08
2018-06-21T16:14:51.531Z,96938.91
2018-06-21T16:19:46.103Z,96935.61
2018-06-21T16:24:40.744Z,96942.41
2018-06-21T16:29:35.329Z,96950.50
2018-06-21T16:34:29.962Z,96956.27
2018-06-21T16:39:24.532Z,96952.41
2018-06-21T16:44:19.094Z,96950.13
2018-06-21T16:49:13.748Z,96965.00
2018-06-21T16:54:08.350Z,96959.59
2018-06-21T16:59:03.052Z,96958.59
2018-06-21T17:03:57.710Z,96963.92
2018-06-21T17:08:52.385Z,96965.18
2018-06-21T17:13:47.073Z,96973.36
2018-06-21T17:18:42.342Z,96978.11
2018-06-21T17:23:36.968Z,96978.72
2018-06-21T17:28:31.550Z,96986.27
2018-06-21T17:33:26.102Z,96987.73
2018-06-21T17:38:20.758Z,96997.34
2018-06-21T17:43:15.554Z,96998.89
2018-06-21T17:48:10.252Z,97003.75
2018-06-21T17:53:04.873Z,97016.53
2018-06-21T17:57:59.449Z,97021.49
2018-06-21T18:02:54.026Z,97029.66
2018-06-21T18:07:48.561Z,97033.21
2018-06-21T18:12:43.275Z,97046.96
2018-06-21T18:17:37.957Z,97051.49
2018-06-21T18:22:32.659Z,97057.91
2018-06-21T18:27:27.447Z,97067.89
2018-06-21T18:32:22.066Z,97072.95
2018-06-21T18:37:16.741Z,97085.89
2018-06-21T18:42:11.503Z,97081.52
2018-06-21T18:47:07.501Z,97087.38
2018-06-21T18:52:02.129Z,97096.23
2018-06-21T18:56:56.752Z,97108.86
2018-06-21T19:01:51.475Z,97115.64
2018-06-21T19:06:51.190Z,97136.98
2018-06-21T19:11:50.764Z,97132.58
2018-06-21T19:16:45.625Z,97146.66
2018-06-21T19:21:40.295Z,97147.15
2018-06-21T19:26:35.572Z,97151.61
2018-06-21T19:31:30.190Z,97165.31
2018-06-21T19:36:24.831Z,97170.56
2018-06-21T19:41:19.870Z,97176.95
2018-06-21T19:46:14.707Z,97183.44
2018-06-21T19:51:09.412Z,97198.14
2018-06-21T19:56:04.138Z,97208.25
2018-06-21T20:00:58.735Z,97217.45
2018-06-21T20:05:53.320Z,97228.33
2018-06-21T20:10:51.990Z,97239.05
2018-06-21T20:15:51.320Z,97237.25
2018-06-21T20:20:45.972Z,97245.20
2018-06-21T20:25:40.621Z,97261.01
2018-06-21T20:30:35.288Z,97272.85
2018-06-21T20:35:29.947Z,97280.67
2018-06-21T20:40:24.568Z,97276.23
2018-06-21T20:45:19.214Z,97284.87
2018-06-21T20:50:13.847Z,97301.52
2018-06-21T20:55:08.458Z,97302.23
2018-06-21T21:00:03.151Z,97306.38
2018-06-21T21:05:15.698Z,97309.50
2018-06-21T21:10:13.470Z,97310.39
2018-06-21T21:15:09.212Z,97317.39
2018-06-21T21:20:04.681Z,97331.70
2018-06-21T21:24:59.330Z,97344.47
2018-06-21T21:29:54.031Z,97365.33
2018-06-21T21:34:48.623Z,97375.56
2018-06-21T21:39:43.150Z,97402.39
2018-06-21T21:44:37.765Z,97403.08
2018-06-21T21:49:32.415Z,97416.11
2018-06-21T21:54:27.240Z,97422.16
2018-06-21T21:59:21.946Z,97421.99
2018-06-21T22:04:16.615Z,97443.30
2018-06-21T22:09:11.207Z,97447.45
2018-06-21T22:14:06.199Z,97440.47
2018-06-21T22:19:00.796Z,97449.25
2018-06-21T22:23:55.535Z,97446.80
2018-06-21T22:33:52.039Z,97462.66
2018-06-21T22:38:46.562Z,97468.95
2018-06-21T22:43:41.174Z,97475.63
2018-06-21T22:48:36.096Z,97475.23
2018-06-21T22:53:30.682Z,97485.33
2018-06-21T22:58:25.270Z,97495.27
2018-06-21T23:03:19.907Z,97503.75
2018-06-21T23:08:14.563Z,97509.81
2018-06-21T23:13:09.260Z,97521.84
2018-06-21T23:18:03.835Z,97522.23
2018-06-21T23:22:58.487Z,97520.12
2018-06-21T23:27:53.138Z,97535.41
2018-06-21T23:32:47.769Z,97535.87
2018-06-21T23:37:42.408Z,97546.48
2018-06-21T23:42:37.019Z,97557.92
2018-06-21T23:47:31.595Z,97566.80
2018-06-21T23:52:26.235Z,97566.00
2018-06-21T23:57:20.528Z,97572.58
